West Melbourne, Florida
Current Conditions -  °F | °C
As of 7:15 PM on Tuesday 25 Nov 2014 (Local Time) from KMLB Reporting Station
Moderate Rain Moderate Rain  
Wind Chill: 75°   Ceiling: 4000
Heat Index: 75°   Visibility: 4mi
Dew Point: 73°   Wind: 13mph
Humidity: 94%   Direction: 190°S
Pressure: 29.93"   Gusts: 18mph
Location:  28.0786°N, 80.6027°W
Report Text: KMLB 260015Z 19011G16KT 4SM RA BR FEW011 BKN040 OVC065 24/23 A2993 RMK AO2 LTG DSNT N TSB2354E09 P0003 T02390228
Loading
Personal Weather Stations






























Interactive Weather Map New forecast layout! Learn more

10-Day Weather Forecast

Advertisements
Track Severe Weather on mobile